Time;durP1;ratioP1;P1;durP2;ratioP2;P2;SDS_P1;SDS_P2;PMS_P1;PMS_P2;Temp;Humidity;BMP_temperature;BMP_pressure;BME280_temperature;BME280_humidity;BME280_pressure;Samples;Min_cycle;Max_cycle;Signal;HPM_P1;HPM_P2
2021/03/28 00:00:55;;;;;;;91.53;42.70;;;;;;;3.60;68.67;100242.44;3550673;27;20141;-47
2021/03/28 00:02:49;;;;;;;88.65;41.65;;;;;;;3.56;67.89;100245.66;3552693;27;20423;-47
2021/03/28 00:04:44;;;;;;;97.75;44.00;;;;;;;3.53;68.55;100235.25;3551946;27;20051;-48
2021/03/28 00:06:29;;;;;;;97.07;43.97;;;;;;;3.51;68.33;100236.84;3551121;27;20102;-47
2021/03/28 00:08:19;;;;;;;94.30;43.80;;;;;;;3.48;68.16;100236.69;3551850;27;20054;-48
2021/03/28 00:10:09;;;;;;;89.50;42.05;;;;;;;3.45;68.41;100237.44;3551684;27;20489;-48
2021/03/28 00:12:00;;;;;;;93.78;45.30;;;;;;;3.43;69.26;100240.69;3553252;27;20104;-48
2021/03/28 00:13:51;;;;;;;99.70;44.30;;;;;;;3.38;70.81;100235.34;3548517;27;20420;-48
2021/03/28 00:15:38;;;;;;;87.95;41.90;;;;;;;3.34;70.49;100233.41;3549917;27;20051;-47
2021/03/28 00:17:34;;;;;;;95.07;44.35;;;;;;;3.32;70.72;100236.72;3552617;27;20519;-47
2021/03/28 00:19:24;;;;;;;93.20;43.90;;;;;;;3.30;69.73;100235.75;3549707;27;20053;-48
2021/03/28 00:21:09;;;;;;;92.05;43.25;;;;;;;3.28;70.34;100239.09;3552158;27;20093;-47
2021/03/28 00:23:04;;;;;;;93.38;43.85;;;;;;;3.26;71.00;100238.16;3550659;27;20058;-47
2021/03/28 00:24:55;;;;;;;97.38;44.15;;;;;;;3.22;71.45;100238.81;3549337;27;20058;-50
2021/03/28 00:26:42;;;;;;;99.20;43.67;;;;;;;3.19;71.73;100235.16;3553140;27;20058;-48
2021/03/28 00:28:29;;;;;;;99.10;45.85;;;;;;;3.16;71.91;100241.03;3549093;27;20099;-48
2021/03/28 00:30:26;;;;;;;100.30;45.92;;;;;;;3.15;72.05;100240.94;3550991;27;20050;-48
2021/03/28 00:32:12;;;;;;;94.72;43.15;;;;;;;3.13;71.88;100243.44;3550610;27;20046;-48
2021/03/28 00:34:12;;;;;;;92.43;42.25;;;;;;;3.10;71.71;100235.59;3549104;27;20142;-48
2021/03/28 00:35:56;;;;;;;92.80;44.25;;;;;;;3.08;72.00;100245.75;3551888;27;20455;-47
2021/03/28 00:37:41;;;;;;;83.72;42.13;;;;;;;3.05;71.73;100242.16;3549938;27;20054;-47
2021/03/28 00:39:42;;;;;;;96.03;44.78;;;;;;;3.02;72.25;100242.88;3549343;27;20046;-47
2021/03/28 00:41:28;;;;;;;95.20;44.63;;;;;;;3.00;72.21;100234.22;3537991;28;20499;-48
2021/03/28 00:43:17;;;;;;;98.70;44.45;;;;;;;2.98;72.38;100240.94;3547417;27;20348;-47
2021/03/28 00:45:09;;;;;;;91.03;42.20;;;;;;;2.96;72.50;100244.22;3550418;27;20368;-47
2021/03/28 00:46:57;;;;;;;96.05;43.45;;;;;;;2.92;73.20;100239.72;3552061;27;20099;-48
2021/03/28 00:48:49;;;;;;;96.35;45.08;;;;;;;2.88;73.08;100247.25;3548876;27;20050;-48
2021/03/28 00:50:35;;;;;;;94.10;43.10;;;;;;;2.86;73.14;100238.59;3552692;27;20066;-47
2021/03/28 00:52:27;;;;;;;93.53;42.65;;;;;;;2.84;73.06;100245.34;3548197;27;20054;-48
2021/03/28 00:54:14;;;;;;;96.63;43.42;;;;;;;2.83;73.25;100246.13;3549873;27;20507;-49
2021/03/28 00:55:57;;;;;;;84.30;40.70;;;;;;;2.81;72.83;100247.72;3551258;27;20039;-47
2021/03/28 00:57:40;;;;;;;86.93;43.22;;;;;;;2.78;73.28;100239.84;3548692;27;20046;-48
2021/03/28 00:59:26;;;;;;;95.45;42.08;;;;;;;2.76;73.43;100238.91;3552664;27;20047;-47
2021/03/28 01:01:33;;;;;;;91.18;43.55;;;;;;;2.74;73.46;100244.75;3548823;27;20082;-47
2021/03/28 01:03:30;;;;;;;84.75;41.50;;;;;;;2.71;73.57;100248.00;3525343;27;20427;-48
2021/03/28 01:05:35;;;;;;;88.68;40.22;;;;;;;2.69;73.44;100245.41;3538008;28;20504;-48
2021/03/28 01:07:25;;;;;;;89.20;40.97;;;;;;;2.63;73.70;100239.06;3549428;27;20047;-48
2021/03/28 01:09:17;;;;;;;89.18;41.10;;;;;;;2.64;73.81;100241.69;3548942;27;20058;-48
2021/03/28 01:11:14;;;;;;;88.65;41.17;;;;;;;2.63;74.15;100246.75;3552273;27;20050;-47
2021/03/28 01:13:39;;;;;;;89.88;42.17;;;;;;;2.61;73.62;100243.22;3551205;27;20046;-48
2021/03/28 01:16:10;;;;;;;89.40;39.63;;;;;;;2.60;73.63;100233.75;3510855;27;20495;-49
2021/03/28 01:18:00;;;;;;;88.50;40.95;;;;;;;2.57;73.71;100243.81;3519920;27;20054;-48
2021/03/28 01:20:22;;;;;;;84.70;41.50;;;;;;;2.55;74.01;100251.41;3551016;27;20558;-47
2021/03/28 01:22:08;;;;;;;87.90;39.22;;;;;;;2.53;73.75;100253.03;3549009;27;20492;-48
2021/03/28 01:24:03;;;;;;;83.95;41.17;;;;;;;2.50;73.77;100253.75;3551352;27;20043;-51
2021/03/28 01:26:21;;;;;;;89.05;42.08;;;;;;;2.46;74.09;100243.25;3537864;28;20136;-52
2021/03/28 01:28:18;;;;;;;96.53;41.38;;;;;;;2.42;73.88;100252.44;3549109;27;20107;-52
2021/03/28 01:30:08;;;;;;;87.22;42.65;;;;;;;2.40;74.64;100250.59;3549615;27;20087;-54
2021/03/28 01:31:54;;;;;;;99.35;43.92;;;;;;;2.39;75.08;100249.69;3537739;28;20050;-53
2021/03/28 01:33:51;;;;;;;95.32;42.28;;;;;;;2.38;74.93;100253.06;3549142;27;20537;-54
2021/03/28 01:35:38;;;;;;;82.50;39.50;;;;;;;2.37;74.84;100258.97;3552405;27;20522;-53
2021/03/28 01:37:24;;;;;;;89.28;42.15;;;;;;;2.35;74.74;100257.13;3553829;27;20453;-51
2021/03/28 01:39:14;;;;;;;94.97;42.90;;;;;;;2.35;75.09;100262.25;3550883;27;20051;-53
2021/03/28 01:41:00;;;;;;;86.03;39.95;;;;;;;2.35;75.07;100255.44;3554349;27;20415;-53
2021/03/28 01:43:00;;;;;;;89.65;40.95;;;;;;;2.33;74.55;100255.34;3553223;27;20046;-52
2021/03/28 01:44:49;;;;;;;92.75;42.03;;;;;;;2.35;74.90;100263.13;3552188;27;20043;-53
2021/03/28 01:46:41;;;;;;;86.35;42.10;;;;;;;2.36;75.22;100256.31;3540332;28;20120;-51
2021/03/28 01:48:41;;;;;;;86.78;40.50;;;;;;;2.33;74.65;100250.25;3548700;27;20046;-53
2021/03/28 01:50:36;;;;;;;89.00;39.85;;;;;;;2.31;74.58;100264.63;3552182;27;20038;-55
2021/03/28 01:52:30;;;;;;;89.18;40.65;;;;;;;2.30;74.59;100254.31;3554163;27;20058;-52
2021/03/28 01:54:19;;;;;;;92.20;40.53;;;;;;;2.29;74.48;100258.56;3553112;27;20074;-51
2021/03/28 01:56:08;;;;;;;79.80;39.58;;;;;;;2.26;74.49;100257.50;3553930;27;20127;-50
2021/03/28 01:57:58;;;;;;;90.82;41.97;;;;;;;2.24;74.95;100259.97;3554865;27;20046;-52
2021/03/28 01:59:57;;;;;;;89.53;40.80;;;;;;;2.21;74.89;100259.78;3551162;27;20046;-53
2021/03/28 02:01:45;;;;;;;86.15;39.65;;;;;;;2.19;74.86;100261.38;3540195;28;20300;-51
2021/03/28 02:03:35;;;;;;;88.15;39.95;;;;;;;2.18;74.61;100259.59;3550453;27;20042;-54
2021/03/28 02:05:25;;;;;;;82.57;40.15;;;;;;;2.18;74.73;100261.28;3551578;27;20412;-52
2021/03/28 02:07:27;;;;;;;82.25;40.08;;;;;;;2.17;74.99;100259.56;3553763;27;20043;-53
2021/03/28 02:09:14;;;;;;;90.30;41.08;;;;;;;2.15;74.88;100267.13;3550698;27;20080;-52
2021/03/28 02:11:30;;;;;;;92.32;41.33;;;;;;;2.13;74.89;100267.03;3552960;27;20054;-51
2021/03/28 02:13:19;;;;;;;86.72;41.92;;;;;;;2.13;75.09;100259.38;3539482;27;20046;-53
2021/03/28 02:15:41;;;;;;;94.20;43.17;;;;;;;2.12;75.34;100257.59;3550512;27;20384;-54
2021/03/28 02:17:33;;;;;;;89.43;42.65;;;;;;;2.12;75.34;100254.16;3483277;28;20049;-52
2021/03/28 02:19:35;;;;;;;84.75;40.40;;;;;;;2.11;75.36;100260.97;3517480;27;20499;-48
2021/03/28 02:21:27;;;;;;;91.25;41.20;;;;;;;2.10;75.42;100260.88;3549483;27;20050;-47
2021/03/28 02:23:15;;;;;;;93.07;42.47;;;;;;;2.10;75.52;100266.88;3551914;27;20051;-48
2021/03/28 02:25:07;;;;;;;91.70;40.50;;;;;;;2.09;75.38;100264.22;3552768;27;20495;-47
2021/03/28 02:27:05;;;;;;;85.68;42.30;;;;;;;2.07;75.73;100255.56;3551442;27;20043;-49
2021/03/28 02:28:57;;;;;;;86.30;40.63;;;;;;;2.06;75.60;100259.81;3552526;27;20491;-48
2021/03/28 02:30:52;;;;;;;90.60;42.78;;;;;;;2.06;75.13;100264.03;3554105;27;20219;-47
2021/03/28 02:32:46;;;;;;;92.80;40.33;;;;;;;2.04;75.13;100255.38;3552336;27;20042;-47
2021/03/28 02:34:32;;;;;;;;;;;;;;;2.03;74.98;100257.06;3554082;27;20046;-47
2021/03/28 02:36:19;;;;;;;;;;;;;;;2.03;74.72;100256.19;3553766;27;19957;-48
2021/03/28 02:38:10;;;;;;;90.05;42.67;;;;;;;2.01;75.26;100261.22;3552676;27;20357;-47
2021/03/28 02:39:57;;;;;;;95.63;44.13;;;;;;;2.03;75.65;100264.75;3553373;27;20503;-47
2021/03/28 02:41:48;;;;;;;93.28;43.33;;;;;;;2.03;75.21;100261.31;3550374;27;20053;-47
2021/03/28 02:43:33;;;;;;;102.05;45.92;;;;;;;2.03;75.73;100261.31;3551848;27;20039;-48
2021/03/28 02:45:22;;;;;;;102.40;44.72;;;;;;;2.02;75.70;100262.97;3553186;27;20075;-48
2021/03/28 02:47:16;;;;;;;101.22;44.00;;;;;;;2.01;75.79;100265.47;3550292;27;20043;-47
2021/03/28 02:49:02;;;;;;;;;;;;;;;1.99;75.45;100260.25;3554462;27;20050;-48
2021/03/28 02:51:13;;;;;;;96.72;43.17;;;;;;;1.97;75.11;100261.84;3551744;27;19934;-47
2021/03/28 02:53:08;;;;;;;95.93;43.47;;;;;;;1.95;74.95;100255.75;3550096;27;20070;-47
2021/03/28 02:55:08;;;;;;;89.07;40.55;;;;;;;1.92;75.26;100250.47;3553807;27;20078;-47
2021/03/28 02:57:02;;;;;;;92.78;44.55;;;;;;;1.92;75.63;100258.16;3551183;27;20050;-48
2021/03/28 02:59:05;;;;;;;87.15;41.92;;;;;;;1.89;75.56;100256.28;3550046;27;20047;-48
2021/03/28 03:01:01;;;;;;;85.80;41.03;;;;;;;1.87;75.63;100252.75;3539316;28;20079;-48
2021/03/28 03:03:15;;;;;;;96.03;42.00;;;;;;;1.86;75.39;100263.78;3552798;27;20069;-47
2021/03/28 03:05:07;;;;;;;90.90;40.85;;;;;;;1.81;75.02;100259.19;3550141;27;20051;-47
2021/03/28 03:07:06;;;;;;;89.20;40.10;;;;;;;1.79;75.26;100258.22;3553356;27;20051;-47
2021/03/28 03:08:57;;;;;;;88.38;41.97;;;;;;;1.77;75.25;100254.69;3550996;27;20507;-48
2021/03/28 03:11:09;;;;;;;98.30;42.58;;;;;;;1.76;75.73;100253.81;3549890;27;20103;-48
2021/03/28 03:12:59;;;;;;;84.63;39.47;;;;;;;1.75;75.94;100258.03;3510059;27;20058;-47
2021/03/28 03:15:03;;;;;;;84.05;39.10;;;;;;;1.75;75.78;100258.03;3551679;27;20053;-47
2021/03/28 03:17:12;;;;;;;88.72;36.70;;;;;;;1.75;76.12;100262.28;3550159;27;20065;-48
2021/03/28 03:19:18;;;;;;;84.70;35.83;;;;;;;1.75;75.78;100257.16;3551537;27;20051;-47
2021/03/28 03:21:36;;;;;;;78.28;34.92;;;;;;;1.76;75.58;100261.50;3539431;28;20051;-47
2021/03/28 03:23:50;;;;;;;79.82;34.53;;;;;;;1.77;75.37;100264.94;3551676;27;20051;-47
2021/03/28 03:25:56;;;;;;;82.03;36.20;;;;;;;1.78;74.81;100261.56;3550323;27;20054;-48
2021/03/28 03:28:06;;;;;;;83.88;37.35;;;;;;;1.75;74.31;100264.84;3551745;27;20426;-48
2021/03/28 03:30:10;;;;;;;79.43;36.50;;;;;;;1.73;74.59;100264.75;3502191;28;20450;-47
2021/03/28 03:32:29;;;;;;;78.80;38.20;;;;;;;1.72;74.56;100264.66;3551707;27;20043;-47
2021/03/28 03:34:30;;;;;;;75.53;34.25;;;;;;;1.71;74.59;100260.34;3550204;27;20051;-47
2021/03/28 03:36:26;;;;;;;71.25;34.42;;;;;;;1.67;74.84;100266.03;3553817;27;20057;-47
2021/03/28 03:38:33;;;;;;;80.72;37.30;;;;;;;1.68;75.30;100270.38;3551314;27;20054;-49
2021/03/28 03:40:50;;;;;;;74.70;35.95;;;;;;;1.66;75.14;100267.72;3549881;27;20047;-47
2021/03/28 03:43:01;;;;;;;75.35;35.53;;;;;;;1.64;75.18;100271.88;3551378;27;20042;-47
2021/03/28 03:45:18;;;;;;;77.80;35.88;;;;;;;1.61;75.42;100266.56;3537377;28;20453;-48
2021/03/28 03:47:12;;;;;;;80.95;36.90;;;;;;;1.60;75.27;100262.28;3550338;27;20503;-47
2021/03/28 03:49:29;;;;;;;78.35;36.70;;;;;;;1.59;74.94;100268.16;3550066;27;20050;-48
2021/03/28 03:52:04;;;;;;;80.75;36.05;;;;;;;1.58;75.38;100263.81;3539779;27;20104;-46
2021/03/28 03:53:51;;;;;;;79.32;34.08;;;;;;;1.59;75.67;100268.16;3448217;28;20053;-47
2021/03/28 03:55:40;;;;;;;80.22;35.45;;;;;;;1.59;75.47;100263.06;3548519;27;20047;-47
2021/03/28 03:57:29;;;;;;;75.63;34.03;;;;;;;1.61;75.77;100260.59;3551226;27;20526;-47
2021/03/28 03:59:19;;;;;;;63.17;31.23;;;;;;;1.63;75.41;100262.44;3552855;27;20078;-47
2021/03/28 04:01:17;;;;;;;78.20;31.48;;;;;;;1.64;75.45;100266.75;3549656;27;20042;-48
2021/03/28 04:03:15;;;;;;;66.75;30.50;;;;;;;1.67;75.22;100273.72;3552772;27;20093;-47
2021/03/28 04:05:11;;;;;;;67.00;29.92;;;;;;;1.67;75.13;100266.03;3551205;27;20054;-47
2021/03/28 04:07:16;;;;;;;66.65;30.10;;;;;;;1.70;75.16;100277.34;3549598;27;20046;-47
2021/03/28 04:09:18;;;;;;;70.28;30.48;;;;;;;1.74;75.39;100273.28;3552816;27;20055;-47
2021/03/28 04:11:13;;;;;;;64.30;28.75;;;;;;;1.79;75.12;100278.69;3550811;27;20055;-47
2021/03/28 04:13:16;;;;;;;61.80;29.15;;;;;;;1.83;74.62;100275.50;3549740;27;20042;-47
2021/03/28 04:15:16;;;;;;;62.95;30.35;;;;;;;1.85;74.69;100269.69;3539570;27;20048;-47
2021/03/28 04:17:07;;;;;;;60.53;28.67;;;;;;;1.88;74.44;100271.53;3553480;27;20514;-48
2021/03/28 04:19:21;;;;;;;64.60;30.08;;;;;;;1.93;74.79;100281.22;3549441;27;20043;-47
2021/03/28 04:21:15;;;;;;;55.72;27.35;;;;;;;2.01;74.81;100278.25;3550850;27;20054;-47
2021/03/28 04:23:13;;;;;;;58.95;28.67;;;;;;;2.06;74.12;100279.38;3551677;27;20054;-48
2021/03/28 04:25:08;;;;;;;65.78;31.15;;;;;;;2.12;74.22;100277.19;3547529;27;20082;-48
2021/03/28 04:27:03;;;;;;;68.53;29.85;;;;;;;2.17;73.92;100278.34;3552175;27;20054;-47
2021/03/28 04:28:54;;;;;;;64.28;29.85;;;;;;;2.22;73.92;100278.56;3550528;27;20046;-47
2021/03/28 04:30:50;;;;;;;57.53;29.10;;;;;;;2.29;73.90;100283.28;3551684;27;20047;-47
2021/03/28 04:32:48;;;;;;;55.63;27.60;;;;;;;2.35;73.72;100273.38;3553045;27;20055;-47
2021/03/28 04:34:39;;;;;;;56.08;28.67;;;;;;;2.42;73.50;100278.03;3550898;27;20055;-56
2021/03/28 04:36:28;;;;;;;49.88;25.05;;;;;;;2.49;72.57;100274.16;3551675;27;20053;-54
2021/03/28 04:38:30;;;;;;;54.58;26.80;;;;;;;2.56;72.13;100278.81;3538806;28;20062;-55
2021/03/28 04:40:51;;;;;;;48.90;24.13;;;;;;;2.65;70.78;100284.44;3548466;27;20103;-55
2021/03/28 04:43:04;;;;;;;46.97;22.70;;;;;;;2.73;69.59;100278.84;3506296;27;20054;-53
2021/03/28 04:45:34;;;;;;;43.55;21.58;;;;;;;2.84;68.35;100276.06;3550863;27;20080;-53
2021/03/28 04:47:45;;;;;;;41.80;21.15;;;;;;;2.96;67.16;100278.44;3538535;28;20046;-52
2021/03/28 04:49:57;;;;;;;46.28;22.85;;;;;;;3.09;67.89;100272.28;3550542;27;20111;-56
2021/03/28 04:52:26;;;;;;;46.40;21.73;;;;;;;3.24;66.79;100277.31;3548977;27;20068;-55
2021/03/28 04:54:54;;;;;;;45.95;22.02;;;;;;;3.38;66.88;100276.38;3551180;27;20046;-54
2021/03/28 04:57:19;;;;;;;44.35;21.10;;;;;;;3.54;66.82;100277.16;3539107;27;20047;-55
2021/03/28 04:59:27;;;;;;;50.33;23.25;;;;;;;3.72;67.02;100284.91;3538419;28;20054;-55
2021/03/28 05:01:22;;;;;;;47.03;21.52;;;;;;;3.84;66.23;100278.72;3549767;27;20455;-52
2021/03/28 05:03:36;;;;;;;46.35;23.25;;;;;;;3.97;66.37;100284.47;3549278;27;20093;-54
2021/03/28 05:05:39;;;;;;;42.67;22.27;;;;;;;4.09;65.13;100291.88;3538610;27;20088;-53
2021/03/28 05:08:08;;;;;;;43.25;21.60;;;;;;;4.20;65.02;100283.03;3552306;27;20047;-53
2021/03/28 05:10:39;;;;;;;44.47;22.42;;;;;;;4.35;64.81;100278.66;3536464;27;20057;-55
2021/03/28 05:12:39;;;;;;;;;;;;;;;4.48;64.90;100285.25;3494762;28;20051;-54
2021/03/28 05:15:07;;;;;;;42.63;21.35;;;;;;;4.67;64.46;100281.88;3510662;27;19946;-54
2021/03/28 05:17:22;;;;;;;45.15;21.08;;;;;;;4.89;63.84;100278.59;3538034;28;20526;-53
2021/03/28 05:19:31;;;;;;;45.33;21.00;;;;;;;5.12;63.24;100281.34;3549909;27;20038;-52
2021/03/28 05:21:51;;;;;;;41.63;21.73;;;;;;;5.36;62.15;100281.59;3550689;27;20047;-52
2021/03/28 05:24:02;;;;;;;45.47;22.73;;;;;;;5.60;61.21;100278.31;3496926;27;20082;-54
2021/03/28 05:26:15;;;;;;;44.05;21.98;;;;;;;5.83;60.50;100276.72;3538216;28;20058;-54
2021/03/28 05:28:47;;;;;;;41.03;21.85;;;;;;;6.07;60.03;100282.91;3552802;27;20043;-52
2021/03/28 05:31:08;;;;;;;49.95;23.55;;;;;;;6.30;59.10;100277.81;3552339;27;20074;-54
2021/03/28 05:33:30;;;;;;;47.38;22.73;;;;;;;6.51;58.97;100280.38;3548741;27;20095;-54
2021/03/28 05:35:49;;;;;;;44.30;22.02;;;;;;;6.73;58.35;100271.78;3521538;27;20054;-55
2021/03/28 05:38:05;;;;;;;54.08;27.40;;;;;;;6.94;57.93;100281.19;3507947;28;20047;-55
2021/03/28 05:40:15;;;;;;;51.45;23.98;;;;;;;7.11;57.64;100275.00;3550309;27;20404;-47
2021/03/28 05:42:24;;;;;;;52.20;24.85;;;;;;;7.29;57.09;100279.06;3548576;27;20054;-47
2021/03/28 05:44:32;;;;;;;43.67;23.20;;;;;;;7.45;56.06;100273.63;3550173;27;20050;-48
2021/03/28 05:46:44;;;;;;;58.33;26.23;;;;;;;7.62;55.33;100269.94;3537948;27;20047;-54
2021/03/28 05:49:07;;;;;;;56.72;26.00;;;;;;;7.81;55.91;100279.22;3550172;27;20046;-55
2021/03/28 05:51:05;;;;;;;53.00;25.83;;;;;;;7.97;54.49;100284.91;3548408;27;20419;-53
2021/03/28 05:53:16;;;;;;;51.90;24.10;;;;;;;8.12;54.43;100277.66;3551659;27;20507;-54
2021/03/28 05:55:39;;;;;;;48.08;25.33;;;;;;;8.28;53.88;100288.53;3551088;27;20054;-55
2021/03/28 05:57:52;;;;;;;45.22;23.63;;;;;;;8.43;54.26;100282.97;3548179;27;20085;-54
2021/03/28 05:59:49;;;;;;;49.83;23.30;;;;;;;8.59;53.99;100285.22;3548648;27;20050;-54
2021/03/28 06:01:45;;;;;;;50.83;25.98;;;;;;;8.73;53.66;100285.63;3551986;27;20054;-54
2021/03/28 06:04:04;;;;;;;47.75;24.25;;;;;;;8.90;53.29;100281.84;3549541;27;20051;-55
2021/03/28 06:06:24;;;;;;;48.55;25.63;;;;;;;9.08;52.38;100291.00;3550846;27;20136;-54
2021/03/28 06:08:41;;;;;;;38.30;19.63;;;;;;;9.23;52.36;100293.19;3549719;27;20047;-54
2021/03/28 06:11:02;;;;;;;47.47;24.73;;;;;;;9.34;50.22;100291.75;3537951;28;20051;-55
2021/03/28 06:13:14;;;;;;;53.65;24.92;;;;;;;9.43;50.66;100291.19;3550728;27;20055;-55
2021/03/28 06:15:31;;;;;;;45.67;25.02;;;;;;;9.55;50.64;100291.53;3540576;27;20053;-54
2021/03/28 06:17:26;;;;;;;45.35;23.70;;;;;;;9.64;49.77;100285.72;3545251;27;20047;-55
2021/03/28 06:19:37;;;;;;;47.30;23.20;;;;;;;9.75;49.40;100289.47;3538638;27;20062;-48
2021/03/28 06:21:59;;;;;;;43.90;22.27;;;;;;;9.84;49.22;100289.75;3552173;27;20078;-47
2021/03/28 06:24:26;;;;;;;48.05;21.63;;;;;;;10.00;49.18;100274.56;3550539;27;20046;-49
2021/03/28 06:26:45;;;;;;;43.67;19.45;;;;;;;10.16;49.27;100281.91;3550749;27;20499;-48
2021/03/28 06:29:19;;;;;;;43.22;21.17;;;;;;;10.33;48.72;100274.53;3541217;27;20062;-49
2021/03/28 06:31:36;;;;;;;41.30;21.00;;;;;;;10.52;47.88;100270.66;3539844;28;20420;-49
2021/03/28 06:33:50;;;;;;;36.47;17.85;;;;;;;10.67;48.42;100277.91;3550336;27;20050;-49
2021/03/28 06:36:27;;;;;;;51.30;22.63;;;;;;;10.76;46.66;100279.84;3553297;27;20081;-48
2021/03/28 06:38:44;;;;;;;39.63;20.38;;;;;;;10.78;46.67;100273.88;3550703;27;20306;-48
2021/03/28 06:40:44;;;;;;;40.67;20.30;;;;;;;10.78;46.58;100270.41;3552192;27;20107;-49
2021/03/28 06:43:02;;;;;;;38.83;20.13;;;;;;;10.80;46.71;100269.59;3553024;27;20054;-51
2021/03/28 06:45:06;;;;;;;42.97;21.52;;;;;;;10.90;45.95;100267.19;3551914;27;20095;-47
2021/03/28 06:47:31;;;;;;;40.83;19.98;;;;;;;10.92;45.78;100263.81;3550481;27;20076;-49
2021/03/28 06:49:41;;;;;;;38.17;20.40;;;;;;;11.04;46.71;100263.16;3540658;27;20051;-49
2021/03/28 06:52:00;;;;;;;41.50;19.92;;;;;;;11.22;46.20;100262.69;3549295;27;20103;-48
2021/03/28 06:54:12;;;;;;;36.78;18.35;;;;;;;11.47;45.33;100260.63;3550875;27;20049;-49
2021/03/28 06:56:36;;;;;;;36.65;19.30;;;;;;;11.66;44.94;100264.44;3550224;27;20509;-49
2021/03/28 06:59:00;;;;;;;45.72;20.02;;;;;;;11.77;44.03;100268.13;3552052;27;20507;-48
2021/03/28 07:01:11;;;;;;;37.33;19.08;;;;;;;11.87;43.28;100272.66;3539579;28;20099;-47
2021/03/28 07:03:28;;;;;;;41.00;18.75;;;;;;;12.00;43.67;100260.72;3552156;27;20070;-48
2021/03/28 07:05:23;;;;;;;32.17;16.27;;;;;;;12.17;44.11;100269.72;3550306;27;20058;-48
2021/03/28 07:07:20;;;;;;;36.25;17.88;;;;;;;12.27;42.54;100262.91;3552805;27;20107;-48
2021/03/28 07:09:21;;;;;;;33.97;15.90;;;;;;;12.37;43.00;100266.56;3551978;27;20130;-48
2021/03/28 07:11:34;;;;;;;34.88;17.88;;;;;;;12.49;41.83;100260.69;3550166;27;20046;-48
2021/03/28 07:13:34;;;;;;;35.15;18.83;;;;;;;12.56;41.51;100257.31;3551279;27;20049;-49
2021/03/28 07:15:36;;;;;;;37.13;19.45;;;;;;;12.68;43.29;100261.81;3567886;27;20145;-49
2021/03/28 07:17:43;;;;;;;40.95;19.38;;;;;;;12.83;42.22;100266.38;3553693;27;20078;-48
2021/03/28 07:20:05;;;;;;;36.90;18.00;;;;;;;12.88;41.68;100262.09;3552894;27;20067;-48
2021/03/28 07:22:06;;;;;;;43.55;19.08;;;;;;;12.94;41.16;100252.66;3539809;27;20423;-49
2021/03/28 07:24:32;;;;;;;36.33;17.42;;;;;;;13.05;40.32;100250.22;3553547;27;20070;-49
2021/03/28 07:26:20;;;;;;;;;;;;;;;13.20;41.06;100253.88;3550418;27;20450;-49
2021/03/28 07:28:34;;;;;;;33.72;16.40;;;;;;;13.24;40.29;100261.72;3551649;27;19923;-49
2021/03/28 07:30:57;;;;;;;28.10;14.25;;;;;;;13.23;39.23;100257.38;3539520;28;20138;-48
2021/03/28 07:32:57;;;;;;;29.50;14.40;;;;;;;13.32;39.92;100257.50;3504719;27;20459;-51
2021/03/28 07:35:20;;;;;;;29.33;15.10;;;;;;;13.44;39.34;100253.28;3549905;27;20095;-50
2021/03/28 07:37:37;;;;;;;33.85;17.30;;;;;;;13.57;39.53;100244.75;3550640;27;20055;-53
2021/03/28 07:39:50;;;;;;;35.70;17.20;;;;;;;13.65;39.85;100245.72;3539364;28;20100;-53
2021/03/28 07:41:55;;;;;;;30.27;14.90;;;;;;;13.76;39.68;100242.31;3551471;27;20089;-51
2021/03/28 07:44:09;;;;;;;29.83;14.98;;;;;;;13.85;39.34;100243.28;3515138;27;20054;-49
2021/03/28 07:46:16;;;;;;;26.70;15.50;;;;;;;13.90;38.32;100239.00;3552577;27;20424;-49
2021/03/28 07:48:30;;;;;;;28.95;14.50;;;;;;;13.99;37.80;100235.59;3537307;28;20112;-50
2021/03/28 07:50:40;;;;;;;28.60;13.27;;;;;;;14.05;38.23;100237.38;3500376;28;20051;-50
2021/03/28 07:52:49;;;;;;;32.38;15.48;;;;;;;14.04;38.57;100233.91;3544120;27;20046;-49
2021/03/28 07:54:54;;;;;;;31.70;14.82;;;;;;;14.08;37.57;100242.63;3552655;27;20175;-49
2021/03/28 07:57:08;;;;;;;28.38;15.23;;;;;;;14.11;37.81;100236.53;3552248;27;20046;-48
2021/03/28 07:59:03;;;;;;;26.73;14.85;;;;;;;13.98;36.80;100238.19;3509912;27;20046;-50
2021/03/28 08:01:03;;;;;;;26.00;12.90;;;;;;;13.98;37.19;100232.97;3551150;27;20054;-49
2021/03/28 08:03:15;;;;;;;30.92;16.27;;;;;;;13.85;37.19;100238.06;3567371;27;20054;-49
2021/03/28 08:05:18;;;;;;;28.13;13.88;;;;;;;13.92;37.92;100232.91;3549077;27;20049;-49
2021/03/28 08:07:23;;;;;;;28.37;15.13;;;;;;;13.91;37.50;100242.47;3549788;27;20078;-49
2021/03/28 08:09:33;;;;;;;23.63;13.68;;;;;;;14.01;37.18;100235.63;3539246;28;20280;-50
2021/03/28 08:11:29;;;;;;;28.70;13.60;;;;;;;13.93;36.94;100234.66;3553076;27;20472;-47
2021/03/28 08:13:35;;;;;;;27.60;13.77;;;;;;;13.87;37.43;100240.69;3550300;27;20559;-49
2021/03/28 08:15:35;;;;;;;25.85;14.95;;;;;;;13.92;37.34;100241.63;3552296;27;20085;-49
2021/03/28 08:17:53;;;;;;;30.42;15.55;;;;;;;14.01;38.12;100233.00;3551252;27;20054;-49
2021/03/28 08:20:00;;;;;;;20.92;12.70;;;;;;;14.32;37.24;100234.13;3549514;27;20155;-49
2021/03/28 08:21:50;;;;;;;27.88;14.95;;;;;;;14.45;35.77;100232.50;3550645;27;20078;-49
2021/03/28 08:24:17;;;;;;;27.23;15.10;;;;;;;14.58;36.20;100229.09;3553324;27;20111;-49
2021/03/28 08:26:23;;;;;;;22.65;13.15;;;;;;;14.78;35.74;100226.63;3552587;27;20043;-50
2021/03/28 08:28:36;;;;;;;22.52;13.13;;;;;;;15.04;35.99;100224.13;3549347;27;20085;-48
2021/03/28 08:30:28;;;;;;;23.27;12.23;;;;;;;15.18;34.82;100224.19;3550809;27;20078;-47
2021/03/28 08:32:23;;;;;;;23.38;12.63;;;;;;;15.23;35.62;100221.59;3551592;27;20046;-46
2021/03/28 08:34:41;;;;;;;20.77;13.15;;;;;;;15.11;35.13;100226.78;3552659;27;20042;-50
2021/03/28 08:36:37;;;;;;;24.00;13.32;;;;;;;15.26;35.32;100219.00;3502906;28;20111;-47
2021/03/28 08:38:42;;;;;;;24.70;14.27;;;;;;;15.36;34.17;100225.13;3542749;27;20054;-46
2021/03/28 08:40:47;;;;;;;23.13;12.95;;;;;;;15.47;34.78;100222.53;3551632;27;20046;-47
2021/03/28 08:43:05;;;;;;;21.10;13.32;;;;;;;15.38;33.52;100223.38;3548601;27;20486;-48
2021/03/28 08:45:19;;;;;;;24.20;12.55;;;;;;;15.34;33.78;100229.47;3538337;27;20074;-47
2021/03/28 08:47:37;;;;;;;21.00;12.85;;;;;;;15.21;34.20;100216.34;3551425;27;20469;-53
2021/03/28 08:49:27;;;;;;;19.20;12.90;;;;;;;15.10;33.86;100228.53;3549239;27;20507;-50
2021/03/28 08:51:24;;;;;;;20.33;12.63;;;;;;;15.18;35.12;100215.47;3550390;27;20051;-49
2021/03/28 08:53:26;;;;;;;24.42;13.10;;;;;;;15.23;34.86;100222.47;3566093;27;20098;-52
2021/03/28 08:55:21;;;;;;;23.17;13.25;;;;;;;15.17;33.93;100216.31;3550777;27;20527;-50
2021/03/28 08:57:19;;;;;;;24.48;13.50;;;;;;;15.21;34.73;100212.88;3551433;27;20051;-50
2021/03/28 08:59:15;;;;;;;25.95;14.10;;;;;;;15.34;34.17;100213.78;3551647;27;20093;-49
2021/03/28 09:01:03;;;;;;;21.63;11.88;;;;;;;15.49;34.52;100207.72;3551328;27;20042;-49
2021/03/28 09:02:59;;;;;;;24.42;13.30;;;;;;;15.64;34.48;100204.31;3551790;27;20584;-49
2021/03/28 09:04:51;;;;;;;20.83;13.50;;;;;;;15.67;34.89;100210.41;3552292;27;20078;-49
2021/03/28 09:06:49;;;;;;;23.75;13.30;;;;;;;15.68;34.29;100208.66;3549301;27;20531;-49
2021/03/28 09:08:34;;;;;;;21.58;13.65;;;;;;;15.77;33.42;100206.94;3552090;27;20051;-48
2021/03/28 09:10:38;;;;;;;25.65;13.38;;;;;;;15.81;34.53;100206.91;3551593;27;20499;-49
2021/03/28 09:12:53;;;;;;;27.37;13.37;;;;;;;15.87;33.57;100196.47;3549018;27;20088;-49
2021/03/28 09:14:59;;;;;;;23.10;11.57;;;;;;;16.10;34.15;100196.47;3550826;27;20047;-49
2021/03/28 09:16:51;;;;;;;22.00;12.13;;;;;;;16.10;32.66;100194.72;3552306;27;20093;-51
2021/03/28 09:18:46;;;;;;;22.25;12.15;;;;;;;16.22;33.02;100192.97;3549302;27;20181;-51
2021/03/28 09:20:44;;;;;;;26.17;13.60;;;;;;;16.19;33.74;100201.69;3551890;27;20046;-50
2021/03/28 09:22:35;;;;;;;25.98;14.25;;;;;;;16.19;33.58;100206.06;3550564;27;20085;-52
2021/03/28 09:24:28;;;;;;;19.80;12.18;;;;;;;16.31;34.30;100199.06;3548847;27;20046;-50